Latest Weather Observations for Maitland Airport

IDN60801

Issued at 1:03 pm EDT Thursday 21 March 2019 (issued every 10 minutes, with the page automatically refreshed every 10 minutes)

About weather observations | Map of weather stations | Latest weather observations for NSW | Other Formats
Station Details ID: 061428 Name: MAITLAND AIRPORT AWS Lat: -32.70 Lon: 151.49 Height: 27.5 m
Data from the previous 72 hours. | See also: Recent months at Maitland Airport
Date/Time
EDT
Temp
°C
App
Temp
°C
Dew
Point
°C
Rel
Hum
%
Delta-T
°C
Wind Press
QNH
hPa
Press
MSL
hPa
Rain since
9am
mm
Dir  Spd
km/h
Gust
km/h
Spd
kts
Gust
kts
21/01:00pm 27.5 29.3 18.8 59 5.6 WNW 7 13 4 7 1015.0 1014.9 0.0
21/12:30pm 26.6 28.2 18.2 60 5.3 NNE 7 15 4 8 1015.4 1015.3 0.0
21/12:00pm 26.8 28.8 19.9 66 4.5 E 9 15 5 8 1015.8 1015.7 0.0
21/11:30am 25.3 28.0 20.3 74 3.3 N 6 7 3 4 1016.0 1015.9 0.0
21/11:00am 25.2 28.1 20.7 76 2.9 NNW 6 11 3 6 1016.0 1015.9 0.0
21/10:30am 24.0 26.7 20.7 82 2.2 WNW 7 13 4 7 1016.2 1016.1 0.0
21/10:00am 23.6 26.3 21.3 87 1.5 N 9 11 5 6 1016.3 1016.2 0.0
21/09:30am 22.4 24.8 20.9 91 1.0 NW 9 13 5 7 1016.1 1016.0 0.0
21/09:00am 22.0 25.2 21.2 95 0.5 NNE 6 9 3 5 1015.9 1015.8 0.2
21/08:30am 20.5 23.1 20.5 100 0.0 NW 7 9 4 5 1015.9 1015.8 0.2
21/08:00am 19.5 21.3 19.5 100 0.0 WNW 9 13 5 7 1015.5 1015.4 0.2
21/07:30am 18.8 20.3 18.8 100 0.0 W 9 11 5 6 1015.1 1015.0 0.2
21/07:00am 18.6 20.0 18.6 100 0.0 W 9 13 5 7 1014.7 1014.6 0.2
21/06:30am 18.6 20.3 18.6 100 0.0 W 7 9 4 5 1014.5 1014.4 0.2
21/06:00am 18.6 20.5 18.6 100 0.0 W 6 11 3 6 1014.3 1014.2 0.2
21/05:30am 18.5 21.5 18.5 100 0.0 CALM 0 0 0 0 1014.2 1014.1 0.2
21/05:00am 18.9 20.8 18.9 100 0.0 W 7 9 4 5 1014.0 1013.9 0.2
21/04:30am 19.4 22.8 19.4 100 0.0 CALM 0 6 0 3 1013.8 1013.7 0.2
21/04:00am 19.7 21.6 19.7 100 0.0 W 9 11 5 6 1013.8 1013.7 0.2
21/03:30am 19.8 21.3 19.8 100 0.0 W 11 15 6 8 1013.9 1013.8 0.2
21/03:00am 19.4 22.8 19.4 100 0.0 CALM 0 0 0 0 1014.0 1013.9 0.2
21/02:30am 19.6 22.7 19.6 100 0.0 W 2 9 1 5 1014.1 1014.0 0.2
21/02:00am 19.5 23.0 19.5 100 0.0 CALM 0 0 0 0 1014.5 1014.4 0.2
21/01:30am 20.1 22.2 20.1 100 0.0 W 9 11 5 6 1014.5 1014.4 0.2
21/01:00am 19.9 22.2 19.9 100 0.0 W 7 9 4 5 1014.5 1014.4 0.2
21/12:30am 19.8 21.7 19.8 100 0.0 SW 9 13 5 7 1014.8 1014.7 0.2
21/12:00am 19.4 22.8 19.4 100 0.0 CALM 0 0 0 0 1014.8 1014.7 0.2
 
Date/Time
EDT
Temp
°C
App
Temp
°C
Dew
Point
°C
Rel
Hum
%
Delta-T
°C
Wind Press
QNH
hPa
Press
MSL
hPa
Rain since
9am
mm
Dir  Spd
km/h
Gust
km/h
Spd
kts
Gust
kts
20/11:30pm 19.4 22.8 19.4 100 0.0 CALM 0 0 0 0 1014.8 1014.7 0.2
20/11:00pm 19.7 23.3 19.7 100 0.0 CALM 0 0 0 0 1014.7 1014.6 0.2
20/10:30pm 20.5 24.1 20.5 100 0.0 SE 2 6 1 3 1014.7 1014.6 0.2
20/10:00pm 20.9 25.1 20.9 100 0.0 CALM 0 0 0 0 1014.7 1014.6 0.2
20/09:30pm 21.0 25.2 21.0 100 0.0 CALM 0 0 0 0 1014.6 1014.5 0.2
20/09:00pm 21.4 25.7 21.2 99 0.1 CALM 0 0 0 0 1014.5 1014.4 0.2
20/08:30pm 21.3 24.4 21.0 98 0.2 SE 6 7 3 4 1014.2 1014.1 0.2
20/08:00pm 21.9 24.7 20.9 94 0.7 SE 7 9 4 5 1013.8 1013.7 0.2
20/07:30pm 22.7 25.8 21.0 90 1.1 SE 6 11 3 6 1013.5 1013.4 0.2
20/07:00pm 23.2 26.1 21.1 88 1.4 SE 7 9 4 5 1013.2 1013.1 0.2
20/06:30pm 23.7 25.2 20.6 83 2.0 SSE 13 17 7 9 1013.0 1012.9 0.2
20/06:00pm 24.4 25.4 21.1 82 2.2 SE 17 22 9 12 1012.7 1012.6 0.2
20/05:30pm 24.5 25.5 21.0 81 2.3 SSE 17 22 9 12 1012.5 1012.4 0.2
20/05:00pm 25.0 25.5 20.9 78 2.7 SSE 19 22 10 12 1012.4 1012.3 0.2
20/04:30pm 25.0 25.2 20.5 76 2.9 SSE 20 28 11 15 1012.4 1012.3 0.2
20/04:00pm 26.1 27.1 20.2 70 3.9 SSE 15 20 8 11 1012.3 1012.2 0.2
20/03:30pm 25.3 26.3 19.4 70 3.8 E 13 17 7 9 1012.4 1012.3 0.2
20/03:00pm 25.1 25.0 19.5 71 3.6 SE 19 28 10 15 1012.3 1012.2 0.2
20/02:30pm 26.8 28.3 18.9 62 5.1 SE 9 13 5 7 1012.3 1012.2 0.2
20/02:00pm 26.6 28.5 19.0 63 4.9 SW 7 11 4 6 1012.6 1012.5 0.2
20/01:30pm 26.5 27.6 18.1 60 5.3 SW 9 17 5 9 1012.9 1012.8 0.2
20/01:00pm 26.2 27.0 18.1 61 5.1 SSW 11 17 6 9 1013.4 1013.3 0.2
20/12:30pm 25.3 26.5 19.0 68 4.0 SSW 11 15 6 8 1013.8 1013.7 0.2
20/12:00pm 26.1 29.1 20.9 73 3.4 WSW 6 13 3 7 1014.0 1013.9 0.2
20/11:30am 24.5 25.8 19.3 73 3.3 WSW 11 15 6 8 1014.1 1014.0 0.2
20/11:00am 24.4 26.9 20.3 78 2.7 WSW 7 13 4 7 1014.4 1014.3 0.2
20/10:30am 24.4 27.7 21.5 84 1.9 SW 6 11 3 6 1014.5 1014.4 0.0
20/10:00am 22.9 25.7 21.5 92 0.9 W 9 15 5 8 1014.4 1014.3 0.0
20/09:30am 21.8 24.2 21.5 98 0.2 W 11 17 6 9 1014.2 1014.1 0.0
20/09:00am 20.4 21.4 17.8 85 1.6 W 9 13 5 7 1014.1 1014.0 23.8
20/08:30am 19.6 20.9 18.4 93 0.7 W 9 13 5 7 1013.8 1013.7 23.8
20/08:00am 18.8 20.5 18.5 98 0.2 WNW 7 11 4 6 1013.7 1013.6 23.8
20/07:30am 18.1 19.4 17.5 96 0.4 N 7 11 4 6 1013.4 1013.3 23.8
20/07:00am 18.0 19.8 16.5 91 0.9 SW 2 9 1 5 1013.2 1013.1 23.8
20/06:34am 17.6 19.5 17.6 100 0.0 WNW 4 7 2 4 1013.0 1012.9 23.8
20/06:30am 17.7 19.2 17.7 100 0.0 WNW 6 7 3 4 1012.9 1012.8 23.8
20/06:00am 17.5 20.1 17.5 100 0.0 CALM 0 4 0 2 1012.8 1012.7 23.8
20/05:30am 17.4 18.2 17.4 100 0.0 WNW 9 13 5 7 1012.5 1012.4 23.8
20/05:11am 17.3 18.1 17.3 100 0.0 WNW 9 13 5 7 1012.5 1012.4 23.8
20/05:00am 17.4 17.9 17.4 100 0.0 WNW 11 15 6 8 1012.4 1012.3 23.8
20/04:30am 17.6 18.2 17.6 100 0.0 NW 11 17 6 9 1012.4 1012.3 23.8
20/04:19am 16.7 18.6 16.7 100 0.0 ENE 2 7 1 4 1012.3 1012.2 23.8
20/04:00am 16.8 19.1 16.8 100 0.0 CALM 0 0 0 0 1012.3 1012.2 23.8
20/03:47am 17.1 19.5 17.1 100 0.0 CALM 0 0 0 0 1012.3 1012.2 23.8
20/03:30am 17.2 19.7 17.2 100 0.0 CALM 0 0 0 0 1012.4 1012.3 23.8
20/03:00am 17.6 19.9 17.6 100 0.0 ENE 2 6 1 3 1012.5 1012.4 23.8
20/02:30am 17.5 20.1 17.5 100 0.0 CALM 0 0 0 0 1012.7 1012.6 23.8
20/02:10am 17.7 20.4 17.7 100 0.0 CALM 0 0 0 0 1012.9 1012.8 23.8
20/02:00am 17.5 20.1 17.5 100 0.0 CALM 0 0 0 0 1013.0 1012.9 23.8
20/01:32am 17.4 20.0 17.4 100 0.0 CALM 0 0 0 0 1013.1 1013.0 23.8
20/01:30am 17.6 20.2 17.6 100 0.0 CALM 0 0 0 0 1013.2 1013.1 23.8
20/01:00am 17.7 20.4 17.7 100 0.0 CALM 0 0 0 0 1013.2 1013.1 23.8
20/12:30am 17.8 20.1 17.8 100 0.0 ENE 2 7 1 4 1013.4 1013.3 23.8
20/12:00am 18.9 20.8 18.9 100 0.0 ENE 7 11 4 6 1013.5 1013.4 23.8
 
Date/Time
EDT
Temp
°C
App
Temp
°C
Dew
Point
°C
Rel
Hum
%
Delta-T
°C
Wind Press
QNH
hPa
Press
MSL
hPa
Rain since
9am
mm
Dir  Spd
km/h
Gust
km/h
Spd
kts
Gust
kts
19/11:30pm 18.0 20.8 18.0 100 0.0 CALM 0 0 0 0 1013.8 1013.7 23.8
19/11:00pm 18.2 21.1 18.2 100 0.0 CALM 0 0 0 0 1013.8 1013.7 23.8
19/10:30pm 18.4 21.4 18.4 100 0.0 CALM 0 0 0 0 1013.9 1013.8 23.8
19/10:00pm 18.9 22.1 18.9 100 0.0 CALM 0 0 0 0 1013.9 1013.8 23.8
19/09:30pm 18.9 22.1 18.9 100 0.0 CALM 0 0 0 0 1013.5 1013.4 23.8
19/09:00pm 19.4 22.5 19.4 100 0.0 ENE 2 6 1 3 1013.1 1013.0 23.8
19/08:30pm 19.7 23.3 19.7 100 0.0 CALM 0 0 0 0 1012.8 1012.7 23.8
19/08:00pm 20.3 24.2 20.3 100 0.0 CALM 0 0 0 0 1012.3 1012.2 23.8
19/07:30pm 20.6 24.6 20.6 100 0.0 CALM 0 0 0 0 1012.2 1012.1 23.8
19/07:00pm 20.9 25.1 20.9 100 0.0 CALM 0 2 0 1 1012.0 1011.9 23.8
19/06:44pm 21.0 23.9 21.0 100 0.0 WSW 7 13 4 7 1011.9 1011.8 23.8
19/06:30pm 20.6 22.5 20.6 100 0.0 SW 11 15 6 8 1011.9 1011.8 23.6
19/06:00pm 21.0 23.5 21.0 100 0.0 E 9 13 5 7 1011.7 1011.6 17.4
19/05:58pm 21.2 23.8 21.2 100 0.0 E 9 13 5 7 1011.7 1011.6 16.8
19/05:30pm 21.6 24.8 21.6 100 0.0 NNE 7 13 4 7 1011.3 1011.2 14.8
19/05:00pm 21.3 24.1 20.8 97 0.3 ENE 7 11 4 6 1011.2 1011.1 14.8
19/04:32pm 21.1 24.0 21.1 100 0.0 ESE 7 11 4 6 1011.0 1010.9 14.8
19/04:30pm 21.1 24.2 21.1 100 0.0 ESE 6 11 3 6 1011.0 1010.9 14.8
19/04:00pm 20.1 20.1 20.1 100 0.0 SW 20 33 11 18 1011.3 1011.2 7.0
19/03:55pm 20.9 21.1 20.6 98 0.2 WSW 20 33 11 18 1011.1 1011.0 2.0
19/03:30pm 23.4 23.8 19.8 80 2.3 SW 17 30 9 16 1010.8 1010.7 0.0
19/03:00pm 25.6 27.3 18.5 65 4.5 WSW 7 9 4 5 1010.6 1010.5 0.0
19/02:30pm 25.6 27.1 18.8 66 4.3 W 9 13 5 7 1010.8 1010.7 0.0
19/02:00pm 24.8 26.8 19.2 71 3.6 WNW 7 15 4 8 1011.2 1011.1 0.0
19/01:30pm 25.7 26.3 18.6 65 4.5 NW 13 19 7 10 1011.6 1011.5 0.0
19/01:00pm 24.2 25.9 19.3 74 3.1 W 9 15 5 8 1012.0 1011.9 0.0
19/12:30pm 24.7 26.8 20.2 76 2.9 WNW 9 15 5 8 1012.4 1012.3 0.0
19/12:00pm 24.1 26.0 19.8 77 2.8 WSW 9 17 5 9 1012.6 1012.5 0.0
19/11:30am 23.9 26.0 20.2 80 2.4 NW 9 17 5 9 1012.8 1012.7 0.0
19/11:00am 22.6 24.3 20.1 86 1.6 W 11 17 6 9 1013.1 1013.0 0.0
19/10:30am 21.6 22.6 19.5 88 1.3 WNW 13 17 7 9 1013.1 1013.0 0.0
19/10:00am 20.9 22.5 19.9 94 0.6 NW 11 13 6 7 1013.1 1013.0 0.0
19/09:30am 20.3 21.7 19.6 96 0.4 W 11 13 6 7 1013.0 1012.9 0.0
19/09:00am 19.7 21.4 19.4 98 0.2 W 9 11 5 6 1012.7 1012.6 1.4
19/08:30am 19.4 21.1 19.4 100 0.0 W 9 13 5 7 1012.7 1012.6 1.4
19/08:00am 19.1 20.3 19.1 100 0.0 NW 11 15 6 8 1012.4 1012.3 1.4
19/07:30am 18.9 20.8 18.9 100 0.0 S 7 11 4 6 1012.0 1011.9 1.4
19/07:00am 18.9 21.0 18.9 100 0.0 SSW 6 7 3 4 1011.9 1011.8 1.4
19/06:30am 19.2 22.5 19.2 100 0.0 CALM 0 0 0 0 1011.5 1011.4 1.4
19/06:00am 19.1 22.4 19.1 100 0.0 CALM 0 0 0 0 1011.2 1011.1 1.4
19/05:30am 19.0 21.1 19.0 100 0.0 SSW 6 7 3 4 1010.8 1010.7 1.4
19/05:00am 19.2 22.5 19.2 100 0.0 CALM 0 0 0 0 1010.8 1010.7 1.4
19/04:30am 19.1 22.4 19.1 100 0.0 CALM 0 0 0 0 1010.9 1010.8 1.4
19/04:00am 19.3 21.5 19.3 100 0.0 SSW 6 7 3 4 1011.1 1011.0 1.4
19/03:30am 19.2 21.4 19.2 100 0.0 SSW 6 9 3 5 1011.2 1011.1 1.4
19/03:00am 19.1 21.1 19.1 100 0.0 SSW 7 11 4 6 1011.4 1011.3 1.4
19/02:30am 19.3 21.0 19.3 100 0.0 S 9 13 5 7 1011.5 1011.4 1.4
19/02:00am 19.5 21.3 19.5 100 0.0 S 9 13 5 7 1011.7 1011.6 1.4
19/01:30am 19.6 22.0 19.6 100 0.0 S 6 9 3 5 1012.0 1011.9 1.4
19/01:26am 19.7 22.9 19.7 100 0.0 S 2 9 1 5 1012.0 1011.9 1.4
19/01:00am 19.7 23.3 19.7 100 0.0 CALM 0 0 0 0 1012.1 1012.0 1.4
19/12:57am 19.8 23.4 19.8 100 0.0 CALM 0 0 0 0 1012.2 1012.1 1.4
19/12:30am 19.8 23.4 19.8 100 0.0 CALM 0 0 0 0 1012.4 1012.3 1.4
19/12:00am 19.7 23.3 19.7 100 0.0 CALM 0 0 0 0 1012.4 1012.3 1.4
 
Date/Time
EDT
Temp
°C
App
Temp
°C
Dew
Point
°C
Rel
Hum
%
Delta-T
°C
Wind Press
QNH
hPa
Press
MSL
hPa
Rain since
9am
mm
Dir  Spd
km/h
Gust
km/h
Spd
kts
Gust
kts
18/11:30pm 19.7 23.3 19.7 100 0.0 CALM 0 0 0 0 1012.5 1012.4 1.4
18/11:00pm 19.7 23.3 19.7 100 0.0 CALM 0 0 0 0 1012.4 1012.3 1.4
18/10:30pm 20.0 23.6 19.7 98 0.2 CALM 0 0 0 0 1012.4 1012.3 1.4
18/10:00pm 20.2 23.6 19.4 95 0.5 CALM 0 0 0 0 1012.2 1012.1 1.4
18/09:30pm 20.2 23.5 19.0 93 0.8 CALM 0 0 0 0 1012.2 1012.1 1.4
18/09:00pm 20.3 23.7 19.3 94 0.6 CALM 0 0 0 0 1012.0 1011.9 1.4
18/08:30pm 20.4 22.9 19.1 92 0.8 S 4 7 2 4 1011.7 1011.6 1.4
18/08:00pm 20.5 22.0 18.8 90 1.1 WNW 9 13 5 7 1011.3 1011.2 1.4
18/07:30pm 20.5 23.7 18.8 90 1.1 CALM 0 0 0 0 1010.8 1010.7 1.4
18/07:00pm 20.6 21.8 18.2 86 1.5 NW 9 13 5 7 1010.6 1010.5 1.4
18/06:30pm 21.0 21.4 18.2 84 1.7 NW 13 22 7 12 1010.3 1010.2 1.4
18/06:00pm 21.8 23.1 19.2 85 1.7 NW 11 19 6 10 1010.2 1010.1 1.4
18/05:30pm 21.6 22.1 19.3 87 1.5 NW 15 24 8 13 1010.1 1010.0 1.4
18/05:00pm 22.5 23.8 20.2 87 1.5 NW 13 17 7 9 1010.0 1009.9 1.4
18/04:30pm 21.7 23.2 19.8 89 1.2 NNW 11 17 6 9 1010.0 1009.9 1.4
18/04:00pm 20.5 22.2 20.2 98 0.2 N 11 17 6 9 1010.2 1010.1 1.4
18/03:30pm 19.9 20.9 19.4 97 0.3 W 13 24 7 13 1010.4 1010.3 1.4
18/03:00pm 22.3 21.4 19.8 86 1.6 SW 24 37 13 20 1010.5 1010.4 0.2
18/02:30pm 23.9 24.1 19.4 76 2.9 W 17 26 9 14 1010.7 1010.6 0.2
18/02:00pm 24.8 25.1 18.7 69 3.9 WNW 15 20 8 11 1011.0 1010.9 0.2
18/01:30pm 25.0 24.5 18.7 68 4.0 WNW 19 28 10 15 1011.2 1011.1 0.2

Other formats

Comma delimited format used in spreadsheet applications
http://www.bom.gov.au/fwo/IDN60801/IDN60801.94650.axf

JavaScript Object Notation format (JSON) in row-major order
http://www.bom.gov.au/fwo/IDN60801/IDN60801.94650.json

Data quality

Most of these data are generated automatically and are frequently updated. Quality checks on data are not normally performed. It is possible for incorrect values to appear. Refer to information at About Latest Weather Observations and please check the disclaimer before using these data.